Time;durP1;ratioP1;P1;durP2;ratioP2;P2;SDS_P1;SDS_P2;PMS_P1;PMS_P2;Temp;Humidity;BMP_temperature;BMP_pressure;BME280_temperature;BME280_humidity;BME280_pressure;Samples;Min_cycle;Max_cycle;Signal;HPM_P1;HPM_P2
2022/10/07 00:01:03;;;;;;;5.60;2.20;;;19.00;99.90;;;;;;4999508;28;20033;-72
2022/10/07 00:03:32;;;;;;;5.65;2.67;;;19.00;99.90;;;;;;4990945;28;20064;-71
2022/10/07 00:06:14;;;;;;;4.38;2.20;;;19.00;99.90;;;;;;5025211;28;20392;-72
2022/10/07 00:08:47;;;;;;;11.68;2.15;;;19.00;99.90;;;;;;5026704;28;20521;-73
2022/10/07 00:11:20;;;;;;;4.57;2.63;;;18.90;99.90;;;;;;5014540;28;20088;-72
2022/10/07 00:13:54;;;;;;;7.90;2.55;;;18.90;99.90;;;;;;5017291;28;20040;-72
2022/10/07 00:16:30;;;;;;;4.70;2.30;;;18.90;99.90;;;;;;5040218;28;20136;-73
2022/10/07 00:18:59;;;;;;;3.85;1.95;;;18.90;99.90;;;;;;5025058;28;20476;-82
2022/10/07 00:21:29;;;;;;;7.25;2.42;;;18.90;99.90;;;;;;5016668;28;20357;-74
2022/10/07 00:23:58;;;;;;;5.85;2.78;;;18.90;99.90;;;;;;5050402;28;20041;-74
2022/10/07 00:26:28;;;;;;;6.45;2.20;;;18.90;99.90;;;;;;5015786;28;20059;-72
2022/10/07 00:28:56;;;;;;;3.50;2.53;;;18.80;99.90;;;;;;4999781;28;20483;-73
2022/10/07 00:31:27;;;;;;;4.22;2.00;;;18.90;99.90;;;;;;5015188;28;20493;-75
2022/10/07 00:33:56;;;;;;;3.58;1.77;;;18.90;99.90;;;;;;5032316;28;20068;-73
2022/10/07 00:36:31;;;;;;;7.65;3.25;;;18.90;99.90;;;;;;5032177;28;20071;-73
2022/10/07 00:39:02;;;;;;;3.77;2.00;;;18.80;99.90;;;;;;5007587;28;20147;-75
2022/10/07 00:41:49;;;;;;;5.80;2.40;;;18.90;99.90;;;;;;5033074;28;20299;-76
2022/10/07 00:44:32;;;;;;;4.18;2.50;;;18.90;99.90;;;;;;5033642;28;20057;-73
2022/10/07 00:47:12;;;;;;;4.10;2.75;;;18.90;99.90;;;;;;5033256;28;20033;-74
2022/10/07 00:50:12;;;;;;;9.38;3.05;;;18.90;99.90;;;;;;5016942;28;20068;-73
2022/10/07 00:52:56;;;;;;;4.05;2.50;;;18.80;99.90;;;;;;5035525;28;20051;-75
2022/10/07 00:55:27;;;;;;;4.57;3.20;;;18.80;99.90;;;;;;5050030;28;20049;-74
2022/10/07 00:58:00;;;;;;;7.82;2.60;;;18.80;99.90;;;;;;5032967;28;20041;-73
2022/10/07 01:00:28;;;;;;;6.07;2.42;;;18.80;99.90;;;;;;5049854;28;20449;-72
2022/10/07 01:02:55;;;;;;;3.58;2.90;;;18.80;99.90;;;;;;5033682;28;20045;-73
2022/10/07 01:05:24;;;;;;;4.82;2.67;;;18.80;99.90;;;;;;5016274;28;20838;-72
2022/10/07 01:07:51;;;;;;;4.72;2.88;;;18.80;99.90;;;;;;5016164;28;20349;-72
2022/10/07 01:10:23;;;;;;;6.78;2.50;;;18.80;99.90;;;;;;5033142;28;20137;-74
2022/10/07 01:13:02;;;;;;;3.92;2.47;;;18.80;99.90;;;;;;5016694;28;20045;-72
2022/10/07 01:15:39;;;;;;;5.00;2.13;;;18.90;99.90;;;;;;5032954;28;20056;-73
2022/10/07 01:18:16;;;;;;;4.68;2.47;;;18.80;99.90;;;;;;5032392;28;20549;-72
2022/10/07 01:20:50;;;;;;;4.07;2.28;;;18.90;99.90;;;;;;5015386;28;20080;-73
2022/10/07 01:23:33;;;;;;;6.45;2.58;;;18.80;99.90;;;;;;5032678;28;20345;-73
2022/10/07 01:26:28;;;;;;;6.38;3.45;;;18.90;99.90;;;;;;5016535;28;20083;-72
2022/10/07 01:29:07;;;;;;;6.20;2.20;;;18.80;99.90;;;;;;5032692;28;20086;-73
2022/10/07 01:32:10;;;;;;;6.50;2.50;;;18.90;99.90;;;;;;5000187;28;20071;-72
2022/10/07 01:34:40;;;;;;;4.03;2.67;;;18.90;99.90;;;;;;5032729;28;20045;-73
2022/10/07 01:37:10;;;;;;;4.50;2.42;;;18.90;99.90;;;;;;5016319;28;20099;-73
2022/10/07 01:39:44;;;;;;;5.55;2.45;;;18.90;99.90;;;;;;5029884;28;20037;-73
2022/10/07 01:42:13;;;;;;;5.60;2.78;;;18.90;99.90;;;;;;5053139;28;20132;-72
2022/10/07 01:44:44;;;;;;;5.65;2.17;;;18.90;99.90;;;;;;5052583;28;20064;-73
2022/10/07 01:47:12;;;;;;;6.28;3.08;;;18.90;99.90;;;;;;5018504;28;20045;-72
2022/10/07 01:49:40;;;;;;;5.90;2.70;;;18.90;99.90;;;;;;5036262;28;20040;-72
2022/10/07 01:52:30;;;;;;;6.85;2.45;;;18.90;99.90;;;;;;5052486;28;20064;-72
2022/10/07 01:55:18;;;;;;;5.85;3.10;;;18.90;99.90;;;;;;5052769;28;20044;-81
2022/10/07 01:58:10;;;;;;;4.00;2.38;;;18.90;99.90;;;;;;5036058;28;20068;-72
2022/10/07 02:00:50;;;;;;;8.13;3.25;;;18.90;99.90;;;;;;5036503;28;20067;-73
2022/10/07 02:03:32;;;;;;;8.93;3.33;;;18.90;99.90;;;;;;5018823;28;20146;-72
2022/10/07 02:06:03;;;;;;;6.65;2.67;;;18.90;99.90;;;;;;5053253;28;20045;-73
2022/10/07 02:08:53;;;;;;;6.50;2.80;;;18.90;99.90;;;;;;5052974;28;20040;-72
2022/10/07 02:11:28;;;;;;;4.90;2.88;;;18.80;99.90;;;;;;5070343;28;20114;-73
2022/10/07 02:14:14;;;;;;;6.22;3.20;;;18.80;99.90;;;;;;5052972;28;20044;-73
2022/10/07 02:16:43;;;;;;;7.28;3.53;;;18.70;99.90;;;;;;5019372;28;20080;-73
2022/10/07 02:19:31;;;;;;;6.38;3.00;;;18.80;99.90;;;;;;5037436;28;20044;-74
2022/10/07 02:22:01;;;;;;;9.45;3.15;;;18.70;99.90;;;;;;5052168;28;20076;-74
2022/10/07 02:24:34;;;;;;;8.35;3.47;;;18.70;99.90;;;;;;5034402;28;20076;-72
2022/10/07 02:27:10;;;;;;;8.57;3.78;;;18.80;99.90;;;;;;5019549;28;20052;-75
2022/10/07 02:29:41;;;;;;;10.75;3.75;;;18.70;99.90;;;;;;5052639;28;20060;-73
2022/10/07 02:32:16;;;;;;;9.55;2.85;;;18.70;99.90;;;;;;5052348;28;20104;-72
2022/10/07 02:34:47;;;;;;;3.70;2.88;;;18.70;99.90;;;;;;5035458;28;20053;-73
2022/10/07 02:37:24;;;;;;;12.57;3.63;;;18.70;99.90;;;;;;5019358;28;20048;-72
2022/10/07 02:39:54;;;;;;;6.85;2.63;;;18.70;99.90;;;;;;5030453;28;20447;-73
2022/10/07 02:42:53;;;;;;;7.18;4.53;;;18.70;99.90;;;;;;5032268;28;20135;-72
2022/10/07 02:45:27;;;;;;;5.88;2.70;;;18.70;99.90;;;;;;5032518;28;20400;-72
2022/10/07 02:48:00;;;;;;;4.97;3.03;;;18.70;99.90;;;;;;5046814;28;20047;-73
2022/10/07 02:50:39;;;;;;;6.20;2.90;;;18.70;99.90;;;;;;4998637;28;20053;-73
2022/10/07 02:53:12;;;;;;;7.90;3.25;;;18.70;99.90;;;;;;5016403;28;20384;-73
2022/10/07 02:55:42;;;;;;;7.97;3.10;;;18.70;99.90;;;;;;5015841;28;20053;-72
2022/10/07 02:58:11;;;;;;;5.22;3.10;;;18.70;99.90;;;;;;5015510;28;20052;-72
2022/10/07 03:00:49;;;;;;;5.45;2.55;;;18.70;99.90;;;;;;5034672;28;20045;-72
2022/10/07 03:03:17;;;;;;;;;;;18.70;99.90;;;;;;5019158;28;20652;-73
2022/10/07 03:05:56;;;;;;;5.95;4.05;;;18.70;99.90;;;;;;5034719;28;19939;-73
2022/10/07 03:08:24;;;;;;;8.43;3.03;;;18.70;99.90;;;;;;5052317;28;20044;-74
2022/10/07 03:10:52;;;;;;;4.85;3.05;;;18.70;99.90;;;;;;5035283;28;20052;-73
2022/10/07 03:13:20;;;;;;;4.82;3.13;;;18.70;99.90;;;;;;5019177;28;20146;-73
2022/10/07 03:15:52;;;;;;;6.15;3.33;;;18.70;99.90;;;;;;5052033;28;20151;-72
2022/10/07 03:18:27;;;;;;;5.38;2.88;;;18.70;99.90;;;;;;5019643;28;20052;-73
2022/10/07 03:21:15;;;;;;;6.68;2.88;;;18.70;99.90;;;;;;5036606;28;20044;-72
2022/10/07 03:23:43;;;;;;;4.13;2.85;;;18.70;99.90;;;;;;5035609;28;20068;-72
2022/10/07 03:26:11;;;;;;;8.25;3.22;;;18.70;99.90;;;;;;5019241;28;20129;-73
2022/10/07 03:28:39;;;;;;;5.50;3.28;;;18.70;99.90;;;;;;5035721;28;20186;-72
2022/10/07 03:31:10;;;;;;;5.32;2.88;;;18.70;99.90;;;;;;5035884;28;20802;-72
2022/10/07 03:33:43;;;;;;;10.95;3.30;;;18.70;99.90;;;;;;5036390;28;20044;-72
2022/10/07 03:36:12;;;;;;;4.63;3.05;;;18.70;99.90;;;;;;5034843;28;20063;-73
2022/10/07 03:38:42;;;;;;;5.25;3.20;;;18.70;99.90;;;;;;5047117;28;20087;-75
2022/10/07 03:41:12;;;;;;;7.68;3.20;;;18.70;99.90;;;;;;5035686;28;20051;-72
2022/10/07 03:43:39;;;;;;;5.13;3.00;;;18.70;99.90;;;;;;5035550;28;20098;-72
2022/10/07 03:46:09;;;;;;;9.05;3.40;;;18.70;99.90;;;;;;5054162;28;20098;-72
2022/10/07 03:48:38;;;;;;;8.57;3.70;;;18.70;99.90;;;;;;5023765;28;20114;-72
2022/10/07 03:51:06;;;;;;;8.57;3.20;;;18.60;99.90;;;;;;5040243;28;20044;-75
2022/10/07 03:53:38;;;;;;;5.30;3.03;;;18.60;99.90;;;;;;5039601;28;20052;-72
2022/10/07 03:56:06;;;;;;;7.72;3.47;;;18.70;99.90;;;;;;5023780;28;20076;-72
2022/10/07 03:58:37;;;;;;;4.80;3.10;;;18.70;99.90;;;;;;5040209;28;20107;-72
2022/10/07 04:01:10;;;;;;;4.95;3.55;;;18.60;99.90;;;;;;5055711;28;20047;-72
2022/10/07 04:03:45;;;;;;;5.82;3.40;;;18.70;99.90;;;;;;5039219;28;20049;-72
2022/10/07 04:06:13;;;;;;;7.20;3.88;;;18.60;99.90;;;;;;5055818;28;20048;-72
2022/10/07 04:08:42;;;;;;;22.85;4.10;;;18.60;99.90;;;;;;5023070;28;20044;-72
2022/10/07 04:11:10;;;;;;;6.75;3.22;;;18.70;99.90;;;;;;5022435;28;20048;-72
2022/10/07 04:13:41;;;;;;;6.53;3.28;;;18.70;99.90;;;;;;5039503;28;20095;-72
2022/10/07 04:16:10;;;;;;;6.43;3.85;;;18.70;99.90;;;;;;5039811;28;20144;-72
2022/10/07 04:18:40;;;;;;;8.32;3.92;;;18.60;99.90;;;;;;5008909;28;20057;-72
2022/10/07 04:21:09;;;;;;;7.95;4.22;;;18.70;99.90;;;;;;5035163;28;20045;-72
2022/10/07 04:23:40;;;;;;;6.05;3.13;;;18.70;99.90;;;;;;5035554;28;20045;-72
2022/10/07 04:26:10;;;;;;;5.93;4.07;;;18.70;99.90;;;;;;5035384;28;20140;-72
2022/10/07 04:28:41;;;;;;;9.63;3.60;;;18.70;99.90;;;;;;5018800;28;20399;-73
2022/10/07 04:31:12;;;;;;;4.80;3.42;;;18.70;99.90;;;;;;5003007;28;20086;-73
2022/10/07 04:33:45;;;;;;;8.93;4.45;;;18.60;99.90;;;;;;5003215;28;20053;-72
2022/10/07 04:36:18;;;;;;;6.18;3.67;;;18.60;99.90;;;;;;5034862;28;20060;-73
2022/10/07 04:39:21;;;;;;;12.88;3.70;;;18.70;99.90;;;;;;4971086;28;20059;-72
2022/10/07 04:41:57;;;;;;;8.55;4.07;;;18.60;99.90;;;;;;4978131;28;20154;-72
2022/10/07 04:44:31;;;;;;;5.78;3.72;;;18.70;99.90;;;;;;5033480;28;20045;-72
2022/10/07 04:47:06;;;;;;;7.95;3.53;;;18.60;99.90;;;;;;5034307;28;20410;-73
2022/10/07 04:49:37;;;;;;;7.13;3.95;;;18.60;99.90;;;;;;5018951;28;20124;-72
2022/10/07 04:52:07;;;;;;;5.53;3.08;;;18.60;99.90;;;;;;5035092;28;20448;-72
2022/10/07 04:54:38;;;;;;;9.23;3.40;;;18.60;99.90;;;;;;5018828;28;20053;-73
2022/10/07 04:57:08;;;;;;;7.38;3.33;;;18.60;99.90;;;;;;5017873;28;20135;-72
2022/10/07 04:59:37;;;;;;;6.45;3.25;;;18.60;99.90;;;;;;5052537;28;20041;-73
2022/10/07 05:02:08;;;;;;;5.57;3.47;;;18.60;99.90;;;;;;5034727;28;20554;-74
2022/10/07 05:04:36;;;;;;;5.05;3.60;;;18.60;99.90;;;;;;5018495;28;20041;-72
2022/10/07 05:07:04;;;;;;;6.35;3.60;;;18.60;99.90;;;;;;5001570;28;20462;-72
2022/10/07 05:09:33;;;;;;;8.35;4.40;;;18.60;99.90;;;;;;5002962;28;20155;-73
2022/10/07 05:12:01;;;;;;;9.15;3.97;;;18.70;99.90;;;;;;5019096;28;20048;-72
2022/10/07 05:14:30;;;;;;;12.32;3.53;;;18.70;99.90;;;;;;5017772;28;20045;-72
2022/10/07 05:16:59;;;;;;;7.93;3.85;;;18.80;99.90;;;;;;5019058;28;20139;-75
2022/10/07 05:19:31;;;;;;;6.07;3.28;;;18.90;99.90;;;;;;5022239;28;20110;-72
2022/10/07 05:21:59;;;;;;;10.77;4.43;;;18.90;99.90;;;;;;5038736;28;20119;-72
2022/10/07 05:24:27;;;;;;;8.13;4.07;;;19.00;99.90;;;;;;5055096;28;20487;-72
2022/10/07 05:26:55;;;;;;;7.05;4.25;;;19.10;99.90;;;;;;5021675;28;20048;-72
2022/10/07 05:29:23;;;;;;;8.77;3.88;;;19.10;99.90;;;;;;5055356;28;20112;-72
2022/10/07 05:31:53;;;;;;;8.40;3.75;;;19.30;99.90;;;;;;5038416;28;20052;-72
2022/10/07 05:34:23;;;;;;;9.18;3.50;;;19.40;99.90;;;;;;5038467;28;20048;-76
2022/10/07 05:36:53;;;;;;;9.38;3.25;;;19.60;99.90;;;;;;5038092;28;20544;-72
2022/10/07 05:39:22;;;;;;;7.93;3.15;;;19.80;99.90;;;;;;5036998;28;20072;-72
2022/10/07 05:42:06;;;;;;;10.38;4.78;;;20.00;99.90;;;;;;5038021;28;20047;-72
2022/10/07 05:44:40;;;;;;;4.47;3.00;;;20.20;99.90;;;;;;5022500;28;20043;-72
2022/10/07 05:47:09;;;;;;;8.80;4.60;;;20.20;99.90;;;;;;5053869;28;20098;-73
2022/10/07 05:49:37;;;;;;;10.65;3.92;;;20.30;99.90;;;;;;5072356;28;20041;-72
2022/10/07 05:52:06;;;;;;;12.88;3.65;;;20.40;99.90;;;;;;5037314;28;20461;-74
2022/10/07 05:54:34;;;;;;;6.13;4.10;;;20.50;99.90;;;;;;5051191;28;20063;-73
2022/10/07 05:57:03;;;;;;;8.38;3.13;;;20.60;99.90;;;;;;5035546;28;20058;-73
2022/10/07 05:59:32;;;;;;;13.40;3.28;;;20.70;99.90;;;;;;5053097;28;20085;-74
2022/10/07 06:02:01;;;;;;;10.95;2.53;;;20.90;99.90;;;;;;5053108;28;20040;-73
2022/10/07 06:04:30;;;;;;;7.75;3.53;;;21.00;99.90;;;;;;5036749;28;20098;-73
2022/10/07 06:06:58;;;;;;;4.50;3.30;;;21.20;99.90;;;;;;5052376;28;20036;-85
2022/10/07 06:15:08;;;;;;;8.50;3.38;;;21.80;99.90;;;;;;5016713;28;20064;-72
2022/10/07 06:17:45;;;;;;;4.15;2.92;;;22.10;99.90;;;;;;5013589;28;20057;-72
2022/10/07 06:20:16;;;;;;;5.00;2.38;;;22.30;99.90;;;;;;5013651;28;20496;-72
2022/10/07 06:22:47;;;;;;;3.95;2.30;;;22.60;99.90;;;;;;4997697;28;20076;-73
2022/10/07 06:25:17;;;;;;;6.75;3.63;;;22.80;99.90;;;;;;4997411;28;20053;-72
2022/10/07 06:27:47;;;;;;;9.77;4.03;;;23.00;99.90;;;;;;5013561;28;20094;-73
2022/10/07 06:30:19;;;;;;;7.68;2.47;;;23.20;99.90;;;;;;4998728;28;20045;-74
2022/10/07 06:32:46;;;;;;;6.97;2.60;;;23.20;99.90;;;;;;5009482;28;20566;-76
2022/10/07 06:35:14;;;;;;;7.47;3.20;;;23.20;99.90;;;;;;5015912;28;20521;-81
2022/10/07 06:37:43;;;;;;;4.70;2.70;;;23.20;99.90;;;;;;5031598;28;20124;-72
2022/10/07 06:40:10;;;;;;;4.70;2.42;;;23.00;99.90;;;;;;5014034;28;20072;-72
2022/10/07 06:42:38;;;;;;;4.32;2.53;;;22.90;99.90;;;;;;5056366;28;20053;-71
2022/10/07 06:45:25;;;;;;;6.47;3.22;;;23.00;99.90;;;;;;5042009;28;20044;-71
2022/10/07 06:47:53;;;;;;;8.02;2.58;;;23.10;99.90;;;;;;4997853;28;20403;-72
2022/10/07 06:50:23;;;;;;;4.45;2.75;;;23.40;99.90;;;;;;5038337;28;20064;-71
2022/10/07 06:52:51;;;;;;;4.38;2.17;;;23.60;99.90;;;;;;5019088;28;20146;-73
2022/10/07 06:55:20;;;;;;;5.03;2.25;;;23.80;99.90;;;;;;5016252;28;20049;-73
2022/10/07 06:57:48;;;;;;;4.28;2.90;;;24.00;99.90;;;;;;5015728;28;20151;-71
2022/10/07 07:00:18;;;;;;;3.15;1.80;;;24.10;99.90;;;;;;5017009;28;20483;-73
2022/10/07 07:02:47;;;;;;;5.85;2.90;;;24.00;99.90;;;;;;4999923;28;20053;-74
2022/10/07 07:05:16;;;;;;;8.27;2.80;;;24.10;99.90;;;;;;4995828;28;20045;-72
2022/10/07 07:07:45;;;;;;;5.35;2.67;;;24.10;99.90;;;;;;4997037;28;20045;-72
2022/10/07 07:10:13;;;;;;;3.67;2.22;;;24.30;99.90;;;;;;5016800;28;20056;-72
2022/10/07 07:12:45;;;;;;;6.68;2.92;;;24.30;99.90;;;;;;5047600;28;20063;-72
2022/10/07 07:15:13;;;;;;;6.07;2.10;;;24.30;99.90;;;;;;5022606;28;20053;-71
2022/10/07 07:17:41;;;;;;;6.00;2.97;;;24.30;99.90;;;;;;5000199;28;20059;-72
2022/10/07 07:20:09;;;;;;;5.15;2.60;;;24.30;99.90;;;;;;5014585;28;20136;-74
2022/10/07 07:22:40;;;;;;;6.85;3.35;;;24.40;99.90;;;;;;5012186;28;20103;-72
2022/10/07 07:25:10;;;;;;;7.93;2.90;;;24.50;99.90;;;;;;5039023;28;20460;-71
2022/10/07 07:27:38;;;;;;;7.55;3.58;;;24.60;99.90;;;;;;5020973;28;20388;-71
2022/10/07 07:30:09;;;;;;;8.18;2.53;;;24.60;99.90;;;;;;5054091;28;20056;-71
2022/10/07 07:32:37;;;;;;;3.90;2.45;;;24.60;99.90;;;;;;5037287;28;20137;-72
2022/10/07 07:35:06;;;;;;;4.45;2.35;;;24.60;99.90;;;;;;5036535;28;20145;-72
2022/10/07 07:37:34;;;;;;;6.53;2.78;;;24.60;99.90;;;;;;5037155;28;20128;-72
2022/10/07 07:40:03;;;;;;;9.73;3.80;;;24.70;99.90;;;;;;5020791;28;20142;-72
2022/10/07 07:42:33;;;;;;;9.95;4.07;;;24.80;99.90;;;;;;5036926;28;20048;-71
2022/10/07 07:45:00;;;;;;;6.38;4.70;;;24.80;99.90;;;;;;5052311;28;20033;-73
2022/10/07 07:47:31;;;;;;;8.23;3.47;;;25.00;99.90;;;;;;5054913;28;20790;-72
2022/10/07 07:49:58;;;;;;;6.32;2.75;;;25.00;99.90;;;;;;5020502;28;20468;-72
2022/10/07 07:52:31;;;;;;;14.73;3.55;;;25.00;99.90;;;;;;5020192;28;20056;-72
2022/10/07 07:55:01;;;;;;;5.47;3.25;;;25.10;99.90;;;;;;5004032;28;20045;-72
2022/10/07 07:57:30;;;;;;;4.40;2.20;;;25.10;99.90;;;;;;5053162;28;20048;-71
2022/10/07 08:00:04;;;;;;;4.05;1.80;;;25.20;99.90;;;;;;5036848;28;20057;-72
2022/10/07 08:02:40;;;;;;;4.03;2.25;;;25.30;99.90;;;;;;5030042;28;20045;-71
2022/10/07 08:05:11;;;;;;;13.10;2.97;;;25.30;99.90;;;;;;5027294;28;20088;-72
2022/10/07 08:07:39;;;;;;;6.07;2.65;;;25.40;99.90;;;;;;5033381;28;20049;-72
2022/10/07 08:10:09;;;;;;;6.43;2.17;;;25.40;99.90;;;;;;5003384;28;20085;-71
2022/10/07 08:12:37;;;;;;;4.32;2.10;;;25.40;99.90;;;;;;5018012;28;20068;-72
2022/10/07 08:15:06;;;;;;;6.57;2.78;;;25.20;99.90;;;;;;5002399;28;20444;-72
2022/10/07 08:17:34;;;;;;;7.75;2.42;;;25.30;99.90;;;;;;5002994;28;20085;-72
2022/10/07 08:20:02;;;;;;;5.38;2.53;;;25.40;99.80;;;;;;5055993;28;20048;-72
2022/10/07 08:22:30;;;;;;;6.00;2.08;;;25.40;99.60;;;;;;5039183;28;20044;-72
2022/10/07 08:24:59;;;;;;;5.05;2.25;;;25.40;99.40;;;;;;5036921;28;20148;-72
2022/10/07 08:27:27;;;;;;;6.25;2.05;;;25.30;99.30;;;;;;5032504;28;20077;-72
2022/10/07 08:29:54;;;;;;;8.73;3.45;;;25.40;99.20;;;;;;5040229;28;20094;-72
2022/10/07 08:32:23;;;;;;;4.30;2.58;;;25.40;98.90;;;;;;5053027;28;20045;-74
2022/10/07 08:34:50;;;;;;;8.10;2.15;;;25.30;98.70;;;;;;5070938;28;20072;-73
2022/10/07 08:37:19;;;;;;;8.25;2.35;;;25.40;98.20;;;;;;5050261;28;20072;-71
2022/10/07 08:39:47;;;;;;;9.00;2.85;;;25.20;97.70;;;;;;5052512;28;20095;-71
2022/10/07 08:42:26;;;;;;;6.28;2.33;;;25.30;98.10;;;;;;5031667;28;20127;-72
2022/10/07 08:44:54;;;;;;;4.80;1.92;;;25.40;98.30;;;;;;5038705;28;20079;-73
2022/10/07 08:47:36;;;;;;;5.47;2.42;;;25.50;97.70;;;;;;5033850;28;20088;-72
2022/10/07 08:50:13;;;;;;;3.35;1.98;;;25.50;97.20;;;;;;5034135;28;20402;-71
2022/10/07 08:52:51;;;;;;;4.80;2.83;;;25.50;96.30;;;;;;5020034;28;20052;-74
2022/10/07 08:55:34;;;;;;;7.28;2.67;;;25.50;96.50;;;;;;5054967;28;20049;-71
2022/10/07 08:58:18;;;;;;;7.07;2.70;;;25.60;97.00;;;;;;5035054;28;20085;-71
2022/10/07 09:01:14;;;;;;;5.85;2.15;;;25.60;97.00;;;;;;5059493;28;20112;-73
2022/10/07 09:03:57;;;;;;;5.90;2.10;;;25.60;96.80;;;;;;5034687;28;20341;-74
2022/10/07 09:06:36;;;;;;;4.93;2.03;;;25.70;96.40;;;;;;5031199;28;20136;-73
2022/10/07 09:09:17;;;;;;;4.45;2.30;;;25.80;96.20;;;;;;5035684;28;20043;-73
2022/10/07 09:11:48;;;;;;;4.85;2.08;;;25.80;96.40;;;;;;5047302;28;20036;-73
2022/10/07 09:14:20;;;;;;;7.30;2.25;;;25.80;96.50;;;;;;5054272;28;20056;-72
2022/10/07 09:16:50;;;;;;;5.55;1.90;;;25.80;95.70;;;;;;5053462;28;20566;-72
2022/10/07 09:19:38;;;;;;;4.85;2.22;;;25.80;95.80;;;;;;5053386;28;20638;-72
2022/10/07 09:22:20;;;;;;;5.28;1.95;;;25.80;95.50;;;;;;5025416;28;20040;-73
2022/10/07 09:24:52;;;;;;;5.13;3.17;;;25.80;95.40;;;;;;5000647;28;20094;-73
2022/10/07 09:27:21;;;;;;;4.30;2.40;;;25.90;95.60;;;;;;5028419;28;20052;-73
2022/10/07 09:29:50;;;;;;;5.65;3.20;;;25.90;96.10;;;;;;5053426;28;20059;-72
2022/10/07 09:32:19;;;;;;;10.88;2.75;;;25.90;96.20;;;;;;5052043;28;20040;-73
2022/10/07 09:34:46;;;;;;;3.67;1.85;;;25.70;94.70;;;;;;5033493;28;20044;-72
2022/10/07 09:37:14;;;;;;;6.53;1.95;;;25.70;95.20;;;;;;5050135;28;20228;-72
2022/10/07 09:39:43;;;;;;;4.03;2.13;;;25.60;95.60;;;;;;5039523;28;20505;-73
2022/10/07 09:42:17;;;;;;;4.20;2.03;;;25.60;95.00;;;;;;5064263;28;20064;-73
2022/10/07 09:44:52;;;;;;;3.53;2.10;;;25.60;95.40;;;;;;5017099;28;20044;-72
2022/10/07 09:47:23;;;;;;;4.95;1.98;;;25.70;96.00;;;;;;5041181;28;20064;-72
2022/10/07 09:49:55;;;;;;;5.65;2.17;;;25.70;95.10;;;;;;5033479;28;20139;-72
2022/10/07 09:52:28;;;;;;;5.47;2.53;;;25.60;95.20;;;;;;5059146;28;20054;-72
2022/10/07 09:55:33;;;;;;;5.82;3.05;;;25.50;95.40;;;;;;5053136;28;20762;-72
2022/10/07 09:58:04;;;;;;;6.38;2.53;;;25.40;95.90;;;;;;5016284;28;20128;-72
2022/10/07 10:00:41;;;;;;;4.30;2.08;;;25.60;96.20;;;;;;5035825;28;20052;-72
2022/10/07 10:03:09;;;;;;;4.32;2.30;;;25.60;95.90;;;;;;5019495;28;20135;-73
2022/10/07 10:05:40;;;;;;;5.13;2.58;;;25.70;96.50;;;;;;5033550;28;20085;-73
2022/10/07 10:08:17;;;;;;;5.93;2.42;;;25.70;96.60;;;;;;5049504;28;20041;-74
2022/10/07 10:10:56;;;;;;;8.10;2.30;;;25.50;96.60;;;;;;5032266;28;20524;-73
2022/10/07 10:13:42;;;;;;;8.80;3.85;;;25.40;97.20;;;;;;5067255;28;20043;-71
2022/10/07 10:16:45;;;;;;;5.50;2.10;;;25.50;97.30;;;;;;5065047;28;20033;-71
2022/10/07 10:19:26;;;;;;;4.57;2.35;;;25.40;97.50;;;;;;5002071;28;20118;-71
2022/10/07 10:21:55;;;;;;;4.82;2.30;;;25.50;97.40;;;;;;4998620;28;20108;-69
2022/10/07 10:27:28;;;;;;;5.15;3.13;;;25.50;98.20;;;;;;5010848;28;20076;-72
2022/10/07 10:30:02;;;;;;;8.80;2.53;;;25.60;98.10;;;;;;5023284;28;20104;-71
2022/10/07 10:32:58;;;;;;;4.70;1.98;;;25.50;98.10;;;;;;5010435;28;20103;-71
2022/10/07 10:35:33;;;;;;;6.60;3.20;;;25.50;98.50;;;;;;5036112;28;20054;-70
2022/10/07 10:38:45;;;;;;;7.60;2.70;;;25.50;98.80;;;;;;5022039;28;20116;-71
2022/10/07 10:41:42;;;;;;;7.80;2.70;;;25.40;98.60;;;;;;5023161;28;20041;-77
2022/10/07 10:44:26;;;;;;;6.25;2.25;;;25.40;98.70;;;;;;5047919;28;20065;-71
2022/10/07 10:47:16;;;;;;;7.75;3.38;;;25.40;98.50;;;;;;5031539;28;20161;-70
2022/10/07 10:50:08;;;;;;;8.30;3.00;;;25.40;98.80;;;;;;4991602;28;20345;-70
2022/10/07 10:53:02;;;;;;;4.82;2.65;;;25.40;98.90;;;;;;5033720;28;20085;-70
2022/10/07 10:55:48;;;;;;;8.32;3.15;;;25.40;99.20;;;;;;5021723;28;20118;-70
2022/10/07 10:58:19;;;;;;;;;;;25.40;99.20;;;;;;5048682;28;20041;-70
2022/10/07 11:01:05;;;;;;;5.97;3.05;;;25.40;99.20;;;;;;5030654;28;19924;-70
2022/10/07 11:03:56;;;;;;;4.80;2.38;;;25.50;99.50;;;;;;5036699;28;20048;-69
2022/10/07 11:06:27;;;;;;;8.25;3.30;;;25.50;99.50;;;;;;5068902;28;20062;-70
2022/10/07 11:08:57;;;;;;;5.28;2.40;;;25.50;99.40;;;;;;5050743;28;20198;-70
2022/10/07 11:11:27;;;;;;;5.55;2.95;;;25.20;99.80;;;;;;5048987;28;20231;-74
2022/10/07 11:14:12;;;;;;;3.88;2.17;;;25.20;99.90;;;;;;4978818;28;20053;-70
2022/10/07 11:16:55;;;;;;;5.95;3.40;;;25.30;99.70;;;;;;5030123;28;20056;-70
2022/10/07 11:19:37;;;;;;;7.70;3.10;;;25.30;99.70;;;;;;5013926;28;20088;-70
2022/10/07 11:22:14;;;;;;;4.57;3.17;;;25.20;99.80;;;;;;5031581;28;20052;-69
2022/10/07 11:24:53;;;;;;;4.75;2.35;;;25.20;99.90;;;;;;5012018;28;20037;-70
2022/10/07 11:27:31;;;;;;;6.85;2.97;;;25.20;99.90;;;;;;5040830;28;20048;-73
2022/10/07 11:30:26;;;;;;;3.70;2.90;;;25.20;99.90;;;;;;5008632;28;20140;-70
2022/10/07 11:33:16;;;;;;;4.97;2.25;;;25.20;99.90;;;;;;5022339;28;20079;-70
2022/10/07 11:35:52;;;;;;;9.32;3.20;;;25.20;99.90;;;;;;5017551;28;20044;-71
2022/10/07 11:38:33;;;;;;;5.95;2.40;;;25.10;99.90;;;;;;5013499;28;20034;-72
2022/10/07 11:41:08;;;;;;;7.10;2.90;;;25.10;99.90;;;;;;5011043;28;20559;-69
2022/10/07 11:43:54;;;;;;;5.97;2.80;;;25.10;99.90;;;;;;4995141;28;20110;-69
2022/10/07 11:46:39;;;;;;;4.32;2.70;;;25.10;99.90;;;;;;5052703;28;20098;-70
2022/10/07 11:49:10;;;;;;;6.00;2.27;;;25.10;99.70;;;;;;5016548;28;20034;-69
2022/10/07 11:51:57;;;;;;;5.57;3.05;;;25.10;99.90;;;;;;4999125;28;20476;-69
2022/10/07 11:54:30;;;;;;;5.53;2.88;;;25.00;99.90;;;;;;5019490;28;20053;-70
2022/10/07 11:56:59;;;;;;;4.43;2.33;;;24.90;99.90;;;;;;5001371;28;20460;-70
2022/10/07 11:59:42;;;;;;;8.15;3.22;;;24.90;99.70;;;;;;5019341;28;20053;-70
2022/10/07 12:02:37;;;;;;;5.20;2.35;;;24.80;99.90;;;;;;5024214;28;20554;-69
2022/10/07 12:05:27;;;;;;;6.22;2.92;;;24.90;99.90;;;;;;5034396;28;20057;-70
2022/10/07 12:07:59;;;;;;;4.22;2.40;;;24.80;99.90;;;;;;5007618;28;20069;-72
2022/10/07 12:10:32;;;;;;;6.30;2.50;;;24.80;99.90;;;;;;5013218;28;20057;-71
2022/10/07 12:13:11;;;;;;;9.35;2.80;;;24.60;99.90;;;;;;5039125;28;20045;-76
2022/10/07 12:15:41;;;;;;;6.35;2.92;;;24.50;99.90;;;;;;5016110;28;20053;-72
2022/10/07 12:18:16;;;;;;;5.85;2.65;;;24.50;99.90;;;;;;5001970;28;20436;-70
2022/10/07 12:20:50;;;;;;;7.15;2.80;;;24.60;99.90;;;;;;5012027;28;20144;-71
2022/10/07 12:23:21;;;;;;;6.10;2.30;;;24.50;99.70;;;;;;5006747;28;20353;-71
2022/10/07 12:26:03;;;;;;;6.60;2.85;;;24.50;99.60;;;;;;5001765;28;20136;-70
2022/10/07 12:28:40;;;;;;;7.30;2.97;;;24.40;99.90;;;;;;5027336;28;20067;-70
2022/10/07 12:31:14;;;;;;;8.18;2.25;;;24.30;99.40;;;;;;5031669;28;20140;-78
2022/10/07 12:33:45;;;;;;;3.38;2.20;;;24.20;99.30;;;;;;5031707;28;20144;-70
2022/10/07 12:36:23;;;;;;;9.45;2.95;;;24.20;98.40;;;;;;5046572;28;20036;-71
2022/10/07 12:38:56;;;;;;;5.72;2.85;;;24.10;98.40;;;;;;5040596;28;20037;-72
2022/10/07 12:41:45;;;;;;;5.10;2.50;;;24.20;98.70;;;;;;5011103;28;20988;-79
2022/10/07 12:44:36;;;;;;;4.43;2.63;;;24.10;98.70;;;;;;5010294;28;20156;-73
2022/10/07 12:47:10;;;;;;;4.93;2.25;;;24.20;98.50;;;;;;5043916;28;20407;-70
2022/10/07 12:49:47;;;;;;;3.17;2.30;;;24.20;98.10;;;;;;5018410;28;20048;-70
2022/10/07 12:52:23;;;;;;;6.22;2.80;;;24.30;98.50;;;;;;5042921;28;20061;-77
2022/10/07 12:54:55;;;;;;;3.55;2.35;;;24.20;98.40;;;;;;5001539;28;20399;-69
2022/10/07 12:57:32;;;;;;;10.65;2.55;;;24.30;98.50;;;;;;5026552;28;20041;-70
2022/10/07 13:00:07;;;;;;;4.35;2.13;;;24.30;98.20;;;;;;5038341;28;20040;-69
2022/10/07 13:02:50;;;;;;;4.00;2.33;;;24.30;97.80;;;;;;5016029;28;20060;-69
2022/10/07 13:05:51;;;;;;;4.43;2.10;;;24.30;97.10;;;;;;5004928;28;20091;-70
2022/10/07 13:08:54;;;;;;;4.75;2.83;;;24.20;97.50;;;;;;5010558;28;20097;-71
2022/10/07 13:11:53;;;;;;;4.88;2.60;;;24.20;97.90;;;;;;5015651;28;20052;-72
2022/10/07 13:14:39;;;;;;;6.32;2.63;;;24.20;97.40;;;;;;5027387;28;20044;-71
2022/10/07 13:17:21;;;;;;;5.30;2.35;;;24.20;97.50;;;;;;5018511;28;20049;-76
2022/10/07 13:20:24;;;;;;;5.07;2.60;;;24.10;98.10;;;;;;5028820;28;20115;-71
2022/10/07 13:22:54;;;;;;;4.80;2.20;;;24.00;97.70;;;;;;5013280;28;20562;-71
2022/10/07 13:25:23;;;;;;;4.18;2.10;;;23.90;96.60;;;;;;5016870;28;20085;-71
2022/10/07 13:27:57;;;;;;;5.68;2.65;;;23.80;97.00;;;;;;5014695;28;20080;-72
2022/10/07 13:30:39;;;;;;;5.50;2.90;;;23.70;96.40;;;;;;5041300;28;20057;-71
2022/10/07 13:33:19;;;;;;;5.85;2.55;;;23.70;96.60;;;;;;5030270;28;20045;-70
2022/10/07 13:35:49;;;;;;;5.72;2.13;;;23.60;97.10;;;;;;5010219;28;20122;-72